Airfield :
LOGIN :

Register | Disclaimer

   EN    FR    IT 

 










Legend :    VFR   Marginal VFR   IFR   Intensive IFR   Very Intensive IFR
Visi :
Ceiling :
>= 8 km
>= 3000ft
5 to 8 km
1000 to 3000 ft
1500m to 5 km
500 to 1000 ft
800 to 1500m
200 to 500 ft
< 800m
< 200 ft
Symbols :   Thunderstorms  Fog  Heavy snow  Heavy precipitations  Wind > 20 kt
SIGMETs :     Misc.  Thunderstorms  Icing  Turbulence  Mountain Waves  Volcanic Ashes







- Airport Elevation : 87 ft
- IATA code : AHO


LIEA - Fertilia Alghero

CURRENT METAR :
  • 222020Z 09001KT CAVOK 17/13 Q1021

EXPIRED METARs :
  • 221950Z 09002KT CAVOK 18/13 Q1021
  • 221920Z 02003KT 350V060 CAVOK 18/13 Q1021
  • 221850Z VRB02KT CAVOK 18/13 Q1021
  • 221820Z 03003KT CAVOK 19/13 Q1021
  • 221750Z 01004KT CAVOK 20/12 Q1021

TAF TAF LIEA
Valid from the 22 at 18:00 until the 23 at 18:00 UTC


221700Z 2218/2318 04008KT 9999 SCT030
BECMG 2309/2311 19010KT
No reported NOTAMs for that airfield.



MET'MAP, your aeronautical weather chart ! - Copyright ORBIFLY December 2007 - Disclaimer

ORBIFLY MET'MAP TEAM :

Programming & Development : Alexandra Zaïnal
Concept & Development : Baudouin d'Aumeries
Co-Development & Prog : Marc-Olivier Méhu
Technical & hardware support : Manuel Goepfert

Contact : metmap@orbifly.com




SOURCES & CREDITS :

   NOAA